createdAt,value
2017-12-25T00:02:09.928Z,7.30
2017-12-25T00:04:37.484Z,7.23
2017-12-25T00:07:05.164Z,7.00
2017-12-25T00:09:32.790Z,7.43
2017-12-25T00:12:00.372Z,8.13
2017-12-25T00:14:28.013Z,8.57
2017-12-25T00:16:55.537Z,8.07
2017-12-25T00:19:23.080Z,7.03
2017-12-25T00:21:50.600Z,7.60
2017-12-25T00:24:18.118Z,7.77
2017-12-25T00:26:45.688Z,6.80
2017-12-25T00:29:13.257Z,6.40
2017-12-25T00:31:40.933Z,7.70
2017-12-25T00:34:08.818Z,7.13
2017-12-25T00:36:36.462Z,7.30
2017-12-25T00:39:03.994Z,7.63
2017-12-25T00:41:31.537Z,7.03
2017-12-25T00:43:59.137Z,6.83
2017-12-25T00:46:26.653Z,6.80
2017-12-25T00:48:54.725Z,6.67
2017-12-25T00:51:22.254Z,6.70
2017-12-25T00:53:49.893Z,6.50
2017-12-25T00:56:17.414Z,7.03
2017-12-25T00:58:44.973Z,6.87
2017-12-25T01:01:12.502Z,6.20
2017-12-25T01:03:40.135Z,6.10
2017-12-25T01:06:07.695Z,6.37
2017-12-25T01:08:35.241Z,6.17
2017-12-25T01:11:02.757Z,6.20
2017-12-25T01:13:30.274Z,5.70
2017-12-25T01:15:57.785Z,6.30
2017-12-25T01:18:25.394Z,6.50
2017-12-25T01:20:52.951Z,6.10
2017-12-25T01:23:20.465Z,6.07
2017-12-25T01:25:51.826Z,5.70
2017-12-25T01:28:19.869Z,6.17
2017-12-25T01:30:47.385Z,6.47
2017-12-25T01:33:14.900Z,6.72
2017-12-25T01:35:42.509Z,6.23
2017-12-25T01:38:10.033Z,6.03
2017-12-25T01:40:37.556Z,6.07
2017-12-25T01:43:05.086Z,5.80
2017-12-25T01:45:32.598Z,5.37
2017-12-25T01:48:00.116Z,5.27
2017-12-25T01:50:28.439Z,6.10
2017-12-25T01:52:55.953Z,5.50
2017-12-25T01:55:24.368Z,5.30
2017-12-25T01:57:58.457Z,5.47
2017-12-25T02:00:32.552Z,5.53
2017-12-25T02:03:00.066Z,5.17
2017-12-25T02:05:30.383Z,5.20
2017-12-25T02:08:05.730Z,4.80
2017-12-25T02:10:33.254Z,4.73
2017-12-25T02:13:00.777Z,5.27
2017-12-25T02:15:28.288Z,5.23
2017-12-25T02:17:55.832Z,5.00
2017-12-25T02:20:23.345Z,5.00
2017-12-25T02:22:50.864Z,4.93
2017-12-25T02:25:18.414Z,4.33
2017-12-25T02:27:45.934Z,4.57
2017-12-25T02:30:13.449Z,4.70
2017-12-25T02:32:40.956Z,4.67
2017-12-25T02:35:08.477Z,4.47
2017-12-25T02:37:35.994Z,4.80
2017-12-25T02:40:03.515Z,4.13
2017-12-25T02:42:31.042Z,4.47
2017-12-25T02:44:58.555Z,4.97
2017-12-25T02:47:26.082Z,4.67
2017-12-25T02:49:53.619Z,4.53
2017-12-25T02:52:21.140Z,4.80
2017-12-25T02:54:48.656Z,4.57
2017-12-25T02:57:16.176Z,4.43
2017-12-25T02:59:43.685Z,4.60
2017-12-25T03:02:11.195Z,4.50
2017-12-25T03:04:38.703Z,4.33
2017-12-25T03:07:06.227Z,4.70
2017-12-25T03:09:33.747Z,4.00
2017-12-25T03:12:01.272Z,4.40
2017-12-25T03:14:28.787Z,4.30
2017-12-25T03:16:56.300Z,4.23
2017-12-25T03:19:23.812Z,4.20
2017-12-25T03:21:51.319Z,4.80
2017-12-25T03:24:18.828Z,4.60
2017-12-25T03:26:46.332Z,4.07
2017-12-25T03:29:13.839Z,4.40
2017-12-25T03:31:41.351Z,4.40
2017-12-25T03:34:08.864Z,4.60
2017-12-25T03:36:36.368Z,3.80
2017-12-25T03:39:03.886Z,3.93
2017-12-25T03:41:31.421Z,3.57
2017-12-25T03:43:58.937Z,3.60
2017-12-25T03:46:26.449Z,2.93
2017-12-25T03:48:53.961Z,2.90
2017-12-25T03:51:21.472Z,2.63
2017-12-25T03:53:48.968Z,2.77
2017-12-25T03:56:16.494Z,3.27
2017-12-25T03:58:44.016Z,2.97
2017-12-25T04:01:11.529Z,2.57
2017-12-25T04:03:39.034Z,2.27
2017-12-25T04:06:06.544Z,2.90
2017-12-25T04:08:34.082Z,2.83
2017-12-25T04:11:01.595Z,2.60
2017-12-25T04:13:29.108Z,2.17
2017-12-25T04:15:56.649Z,2.73
2017-12-25T04:18:24.157Z,2.50
2017-12-25T04:20:51.669Z,2.30
2017-12-25T04:23:19.193Z,2.37
2017-12-25T04:25:46.701Z,2.30
2017-12-25T04:28:14.209Z,2.50
2017-12-25T04:30:41.718Z,3.10
2017-12-25T04:33:09.229Z,3.00
2017-12-25T04:35:36.765Z,3.17
2017-12-25T04:38:04.277Z,3.30
2017-12-25T04:40:31.795Z,3.70
2017-12-25T04:42:59.312Z,3.87
2017-12-25T04:45:26.838Z,4.00
2017-12-25T04:47:54.351Z,4.63
2017-12-25T04:50:21.894Z,4.67
2017-12-25T04:52:49.405Z,5.30
2017-12-25T04:55:16.908Z,5.67
2017-12-25T04:57:44.413Z,5.47
2017-12-25T05:00:11.912Z,5.83
2017-12-25T05:02:39.421Z,5.80
2017-12-25T05:05:06.936Z,5.90
2017-12-25T05:07:34.448Z,5.83
2017-12-25T05:10:01.967Z,6.47
2017-12-25T05:12:29.474Z,6.50
2017-12-25T05:14:56.977Z,6.73
2017-12-25T05:17:24.489Z,6.30
2017-12-25T05:19:51.993Z,6.10
2017-12-25T05:22:19.525Z,7.60
2017-12-25T05:24:47.057Z,7.10
2017-12-25T05:27:14.575Z,7.47
2017-12-25T05:29:42.082Z,7.43
2017-12-25T05:32:09.601Z,7.10
2017-12-25T05:34:37.112Z,7.33
2017-12-25T05:37:04.616Z,8.10
2017-12-25T05:39:32.116Z,7.20
2017-12-25T05:41:59.629Z,7.47
2017-12-25T05:44:27.133Z,7.10
2017-12-25T05:46:54.649Z,7.00
2017-12-25T05:49:22.166Z,6.57
2017-12-25T05:51:49.665Z,7.07
2017-12-25T05:54:17.172Z,6.93
2017-12-25T05:56:44.690Z,6.50
2017-12-25T05:59:12.202Z,5.90
2017-12-25T06:01:39.709Z,6.53
2017-12-25T06:04:07.221Z,6.10
2017-12-25T06:06:34.721Z,6.13
2017-12-25T06:09:02.220Z,5.60
2017-12-25T06:11:29.730Z,5.87
2017-12-25T06:13:57.228Z,5.77
2017-12-25T06:16:24.747Z,5.83
2017-12-25T06:18:52.249Z,5.10
2017-12-25T06:21:19.752Z,5.03
2017-12-25T06:23:47.260Z,5.37
2017-12-25T06:26:14.777Z,4.90
2017-12-25T06:28:42.313Z,4.87
2017-12-25T06:31:09.822Z,4.97
2017-12-25T06:33:37.326Z,4.30
2017-12-25T06:36:04.850Z,4.20
2017-12-25T06:38:32.361Z,4.37
2017-12-25T06:40:59.869Z,4.80
2017-12-25T06:43:27.381Z,4.30
2017-12-25T06:45:54.889Z,4.37
2017-12-25T06:48:22.396Z,4.00
2017-12-25T06:50:49.913Z,4.97
2017-12-25T06:53:17.417Z,4.87
2017-12-25T06:55:44.938Z,4.67
2017-12-25T06:58:12.452Z,4.03
2017-12-25T07:00:39.957Z,4.77
2017-12-25T07:03:07.474Z,4.90
2017-12-25T07:05:34.992Z,4.90
2017-12-25T07:08:02.498Z,4.47
2017-12-25T07:10:29.993Z,4.67
2017-12-25T07:12:57.517Z,4.60
2017-12-25T07:15:25.034Z,4.63
2017-12-25T07:17:52.536Z,5.00
2017-12-25T07:20:20.050Z,5.00
2017-12-25T07:22:47.556Z,4.93
2017-12-25T07:25:15.072Z,4.70
2017-12-25T07:27:42.577Z,4.43
2017-12-25T07:30:10.076Z,4.33
2017-12-25T07:32:37.578Z,4.80
2017-12-25T07:35:05.085Z,3.67
2017-12-25T07:37:32.594Z,4.10
2017-12-25T07:40:00.102Z,3.43
2017-12-25T07:42:27.613Z,4.53
2017-12-25T07:44:55.117Z,3.97
2017-12-25T07:47:22.632Z,3.57
2017-12-25T07:49:50.136Z,3.30
2017-12-25T07:52:17.635Z,4.17
2017-12-25T07:54:45.150Z,2.90
2017-12-25T07:57:12.654Z,3.60
2017-12-25T07:59:40.162Z,3.70
2017-12-25T08:02:07.672Z,3.47
2017-12-25T08:04:35.173Z,3.10
2017-12-25T08:07:02.682Z,3.13
2017-12-25T08:09:30.190Z,3.17
2017-12-25T08:11:57.712Z,3.00
2017-12-25T08:14:25.229Z,3.00
2017-12-25T08:16:52.740Z,3.20
2017-12-25T08:19:20.244Z,3.00
2017-12-25T08:21:47.757Z,3.07
2017-12-25T08:24:15.274Z,2.37
2017-12-25T08:26:42.781Z,2.37
2017-12-25T08:29:10.296Z,2.80
2017-12-25T08:31:37.830Z,2.50
2017-12-25T08:34:05.341Z,2.43
2017-12-25T08:36:32.852Z,2.67
2017-12-25T08:39:00.368Z,2.30
2017-12-25T08:41:27.872Z,2.23
2017-12-25T08:43:55.395Z,2.50
2017-12-25T08:46:22.916Z,2.10
2017-12-25T08:48:50.442Z,2.53
2017-12-25T08:51:17.965Z,2.13
2017-12-25T08:53:45.487Z,1.90
2017-12-25T08:56:12.999Z,2.07
2017-12-25T08:58:40.504Z,2.20
2017-12-25T09:01:08.020Z,2.07
2017-12-25T09:03:35.520Z,2.07
2017-12-25T09:06:03.025Z,1.77
2017-12-25T09:08:30.537Z,1.63
2017-12-25T09:10:58.042Z,1.70
2017-12-25T09:13:25.566Z,1.50
2017-12-25T09:15:53.080Z,1.90
2017-12-25T09:18:20.593Z,1.50
2017-12-25T09:20:48.106Z,1.60
2017-12-25T09:23:15.617Z,1.50
2017-12-25T09:25:43.125Z,1.50
2017-12-25T09:28:10.645Z,1.50
2017-12-25T09:30:38.158Z,1.30
2017-12-25T09:33:05.673Z,1.33
2017-12-25T09:35:33.195Z,1.13
2017-12-25T09:38:00.709Z,1.30
2017-12-25T09:40:28.230Z,1.30
2017-12-25T09:42:55.735Z,1.03
2017-12-25T09:45:23.253Z,2.50
2017-12-25T09:47:50.756Z,1.40
2017-12-25T09:50:18.261Z,1.30
2017-12-25T09:52:45.760Z,1.40
2017-12-25T09:55:13.269Z,1.57
2017-12-25T09:57:40.787Z,1.60
2017-12-25T10:00:08.313Z,1.73
2017-12-25T10:02:35.821Z,1.73
2017-12-25T10:05:03.409Z,1.50
2017-12-25T10:07:30.925Z,1.97
2017-12-25T10:09:58.425Z,1.60
2017-12-25T10:12:25.945Z,1.73
2017-12-25T10:14:53.451Z,1.70
2017-12-25T10:17:21.005Z,1.60
2017-12-25T10:19:48.527Z,1.53
2017-12-25T10:22:16.047Z,1.90
2017-12-25T10:24:43.553Z,1.60
2017-12-25T10:27:11.056Z,1.70
2017-12-25T10:29:38.592Z,1.53
2017-12-25T10:32:06.129Z,1.67
2017-12-25T10:34:33.638Z,1.70
2017-12-25T10:37:01.145Z,1.73
2017-12-25T10:39:28.692Z,1.70
2017-12-25T10:41:56.199Z,1.70
2017-12-25T10:44:23.720Z,1.93
2017-12-25T10:46:51.333Z,1.57
2017-12-25T10:49:18.839Z,1.80
2017-12-25T10:51:46.359Z,1.80
2017-12-25T10:54:13.891Z,1.90
2017-12-25T10:56:41.423Z,2.00
2017-12-25T10:59:08.937Z,2.27
2017-12-25T11:01:35.735Z,1.77
2017-12-25T11:04:03.237Z,2.17
2017-12-25T11:06:30.748Z,2.13
2017-12-25T11:08:58.253Z,2.57
2017-12-25T11:11:25.756Z,1.90
2017-12-25T11:13:53.270Z,2.20
2017-12-25T11:16:20.790Z,2.57
2017-12-25T11:18:48.303Z,2.40
2017-12-25T11:21:15.818Z,2.30
2017-12-25T11:23:43.383Z,6.00
2017-12-25T11:26:10.940Z,2.00
2017-12-25T11:28:38.496Z,2.20
2017-12-25T11:31:06.049Z,2.87
2017-12-25T11:33:33.554Z,2.30
2017-12-25T11:36:01.168Z,2.37
2017-12-25T11:38:28.673Z,2.13
2017-12-25T11:40:56.198Z,2.13
2017-12-25T11:43:23.726Z,1.90
2017-12-25T11:45:51.247Z,1.63
2017-12-25T11:48:18.774Z,2.23
2017-12-25T11:50:46.286Z,1.90
2017-12-25T11:53:13.810Z,1.90
2017-12-25T11:55:41.328Z,2.40
2017-12-25T11:58:08.840Z,2.10
2017-12-25T12:00:36.357Z,2.00
2017-12-25T12:03:03.898Z,2.00
2017-12-25T12:05:31.412Z,1.70
2017-12-25T12:07:58.963Z,1.70
2017-12-25T12:10:26.476Z,1.80
2017-12-25T12:12:53.993Z,1.40
2017-12-25T12:15:21.510Z,1.40
2017-12-25T12:17:49.024Z,1.20
2017-12-25T12:20:16.525Z,1.33
2017-12-25T12:22:44.036Z,1.30
2017-12-25T12:25:11.545Z,1.33
2017-12-25T12:27:39.067Z,1.20
2017-12-25T12:30:06.595Z,1.13
2017-12-25T12:32:34.123Z,1.47
2017-12-25T12:35:01.649Z,1.27
2017-12-25T12:37:29.179Z,1.30
2017-12-25T12:39:56.689Z,1.30
2017-12-25T12:42:24.337Z,1.50
2017-12-25T12:44:51.963Z,1.23
2017-12-25T12:47:19.514Z,1.67
2017-12-25T12:49:47.100Z,1.53
2017-12-25T12:52:14.643Z,1.50
2017-12-25T12:54:42.153Z,1.60
2017-12-25T12:57:09.661Z,1.70
2017-12-25T12:59:37.184Z,1.50
2017-12-25T13:02:04.759Z,1.80
2017-12-25T13:04:32.444Z,2.00
2017-12-25T13:07:00.148Z,1.80
2017-12-25T13:09:27.824Z,1.77
2017-12-25T13:11:55.375Z,3.73
2017-12-25T13:14:22.920Z,2.63
2017-12-25T13:16:50.428Z,2.87
2017-12-25T13:19:17.933Z,1.80
2017-12-25T13:21:45.461Z,1.63
2017-12-25T13:24:13.031Z,1.73
2017-12-25T13:26:40.602Z,1.70
2017-12-25T13:29:08.319Z,1.77
2017-12-25T13:31:35.977Z,1.80
2017-12-25T13:34:05.109Z,1.90
2017-12-25T13:36:32.746Z,2.00
2017-12-25T13:39:00.304Z,1.80
2017-12-25T13:41:27.936Z,1.83
2017-12-25T13:43:55.513Z,1.90
2017-12-25T13:46:23.099Z,1.87
2017-12-25T13:48:50.651Z,2.00
2017-12-25T13:51:18.152Z,1.70
2017-12-25T13:53:45.648Z,1.87
2017-12-25T13:56:13.160Z,2.70
2017-12-25T13:58:40.937Z,2.20
2017-12-25T14:01:08.476Z,1.90
2017-12-25T14:03:36.077Z,1.80
2017-12-25T14:06:03.774Z,1.60
2017-12-25T14:08:31.307Z,1.63
2017-12-25T14:10:58.814Z,2.17
2017-12-25T14:13:26.322Z,3.63
2017-12-25T14:15:53.862Z,1.93
2017-12-25T14:18:21.441Z,1.50
2017-12-25T14:20:49.132Z,1.57
2017-12-25T14:23:16.701Z,1.70
2017-12-25T14:25:44.287Z,1.47
2017-12-25T14:28:11.838Z,1.77
2017-12-25T14:30:39.342Z,1.57
2017-12-25T14:33:06.921Z,1.70
2017-12-25T14:35:34.445Z,1.57
2017-12-25T14:38:02.072Z,1.60
2017-12-25T14:40:29.796Z,1.30
2017-12-25T14:42:57.532Z,1.43
2017-12-25T14:45:25.159Z,1.40
2017-12-25T14:47:52.711Z,1.30
2017-12-25T14:50:20.295Z,1.30
2017-12-25T14:52:47.806Z,2.43
2017-12-25T14:55:15.367Z,1.80
2017-12-25T14:57:42.901Z,1.40
2017-12-25T15:00:10.411Z,1.20
2017-12-25T15:02:38.012Z,1.43
2017-12-25T15:05:05.692Z,1.27
2017-12-25T15:07:33.332Z,1.30
2017-12-25T15:10:00.839Z,1.50
2017-12-25T15:12:28.417Z,1.30
2017-12-25T15:14:55.936Z,1.50
2017-12-25T15:17:23.445Z,1.40
2017-12-25T15:19:50.944Z,1.40
2017-12-25T15:22:18.468Z,1.80
2017-12-25T15:24:46.204Z,1.37
2017-12-25T15:27:13.745Z,1.50
2017-12-25T15:29:41.258Z,1.40
2017-12-25T15:32:08.769Z,1.40
2017-12-25T15:34:36.439Z,1.40
2017-12-25T15:37:04.113Z,1.30
2017-12-25T15:39:31.765Z,1.37
2017-12-25T15:41:59.328Z,1.20
2017-12-25T15:44:26.833Z,1.07
2017-12-25T15:46:54.341Z,1.00
2017-12-25T15:49:22.021Z,1.23
2017-12-25T15:51:49.564Z,1.27
2017-12-25T15:54:17.098Z,1.20
2017-12-25T15:56:44.609Z,1.40
2017-12-25T15:59:12.270Z,1.30
2017-12-25T16:01:39.792Z,1.13
2017-12-25T16:04:07.338Z,1.17
2017-12-25T16:06:34.862Z,1.27
2017-12-25T16:09:02.469Z,1.07
2017-12-25T16:11:29.992Z,1.13
2017-12-25T16:13:57.521Z,1.30
2017-12-25T16:16:25.021Z,1.10
2017-12-25T16:18:52.550Z,1.20
2017-12-25T16:21:20.093Z,1.43
2017-12-25T16:23:47.631Z,1.00
2017-12-25T16:26:15.196Z,0.90
2017-12-25T16:28:42.818Z,1.17
2017-12-25T16:31:09.624Z,1.00
2017-12-25T16:33:37.126Z,0.90
2017-12-25T16:36:04.639Z,1.10
2017-12-25T16:38:32.140Z,1.30
2017-12-25T16:40:59.708Z,1.50
2017-12-25T16:43:27.339Z,1.27
2017-12-25T16:45:54.879Z,1.33
2017-12-25T16:48:22.418Z,1.20
2017-12-25T16:50:49.952Z,1.70
2017-12-25T16:53:17.557Z,1.50
2017-12-25T16:55:45.099Z,1.70
2017-12-25T16:58:12.781Z,1.40
2017-12-25T17:00:40.424Z,1.70
2017-12-25T17:03:07.994Z,1.57
2017-12-25T17:05:35.533Z,1.60
2017-12-25T17:08:03.043Z,1.50
2017-12-25T17:10:30.574Z,1.50
2017-12-25T17:12:58.104Z,1.40
2017-12-25T17:15:25.837Z,1.60
2017-12-25T17:17:53.525Z,1.47
2017-12-25T17:20:21.033Z,1.50
2017-12-25T17:22:48.541Z,1.63
2017-12-25T17:25:16.065Z,1.73
2017-12-25T17:27:43.591Z,1.57
2017-12-25T17:30:11.104Z,1.43
2017-12-25T17:32:38.808Z,1.40
2017-12-25T17:35:06.419Z,1.43
2017-12-25T17:37:33.979Z,1.50
2017-12-25T17:40:01.514Z,1.53
2017-12-25T17:42:29.030Z,1.40
2017-12-25T17:44:56.568Z,1.50
2017-12-25T17:47:24.149Z,1.50
2017-12-25T17:49:51.816Z,1.40
2017-12-25T17:52:19.393Z,1.60
2017-12-25T17:54:46.990Z,1.53
2017-12-25T17:57:14.541Z,1.70
2017-12-25T17:59:42.046Z,1.80
2017-12-25T18:02:09.563Z,1.73
2017-12-25T18:04:37.078Z,1.53
2017-12-25T18:07:04.801Z,1.60
2017-12-25T18:09:32.621Z,1.80
2017-12-25T18:12:00.282Z,1.50
2017-12-25T18:14:27.821Z,1.40
2017-12-25T18:16:55.412Z,1.97
2017-12-25T18:19:22.924Z,1.80
2017-12-25T18:21:50.517Z,1.50
2017-12-25T18:24:18.127Z,1.80
2017-12-25T18:26:45.625Z,1.80
2017-12-25T18:29:13.130Z,1.53
2017-12-25T18:31:40.685Z,1.73
2017-12-25T18:34:08.188Z,1.50
2017-12-25T18:36:35.755Z,1.50
2017-12-25T18:39:03.391Z,1.83
2017-12-25T18:41:31.063Z,2.00
2017-12-25T18:43:58.647Z,1.67
2017-12-25T18:46:26.190Z,1.73
2017-12-25T18:48:53.725Z,1.87
2017-12-25T18:51:21.236Z,1.87
2017-12-25T18:53:48.782Z,1.77
2017-12-25T18:56:16.449Z,1.70
2017-12-25T18:58:44.053Z,1.90
2017-12-25T19:01:11.761Z,1.90
2017-12-25T19:03:39.280Z,2.10
2017-12-25T19:06:06.810Z,2.00
2017-12-25T19:08:35.236Z,2.00
2017-12-25T19:11:02.858Z,2.00
2017-12-25T19:13:30.563Z,2.23
2017-12-25T19:15:58.240Z,1.90
2017-12-25T19:18:25.821Z,1.93
2017-12-25T19:20:53.329Z,2.13
2017-12-25T19:23:20.896Z,2.17
2017-12-25T19:25:48.515Z,2.17
2017-12-25T19:28:16.044Z,2.30
2017-12-25T19:30:43.646Z,2.63
2017-12-25T19:33:12.111Z,2.80
2017-12-25T19:35:39.620Z,2.37
2017-12-25T19:38:07.222Z,2.40
2017-12-25T19:40:34.796Z,2.50
2017-12-25T19:43:02.300Z,2.90
2017-12-25T19:45:29.918Z,2.50
2017-12-25T19:47:57.429Z,2.50
2017-12-25T19:50:24.961Z,2.50
2017-12-25T19:52:52.479Z,2.13
2017-12-25T19:55:20.057Z,2.33
2017-12-25T19:57:47.615Z,2.10
2017-12-25T20:00:15.137Z,2.53
2017-12-25T20:02:42.654Z,2.10
2017-12-25T20:05:10.170Z,2.40
2017-12-25T20:07:37.747Z,2.30
2017-12-25T20:10:05.257Z,2.50
2017-12-25T20:12:32.875Z,2.57
2017-12-25T20:15:00.398Z,2.37
2017-12-25T20:17:27.926Z,2.40
2017-12-25T20:19:55.559Z,3.00
2017-12-25T20:22:23.221Z,3.17
2017-12-25T20:24:51.318Z,3.10
2017-12-25T20:27:18.877Z,2.97
2017-12-25T20:29:46.504Z,3.10
2017-12-25T20:32:14.009Z,3.40
2017-12-25T20:34:41.509Z,3.53
2017-12-25T20:37:09.033Z,4.00
2017-12-25T20:39:36.551Z,4.13
2017-12-25T20:42:04.086Z,4.17
2017-12-25T20:44:31.590Z,4.60
2017-12-25T20:46:59.105Z,4.50
2017-12-25T20:49:26.606Z,5.23
2017-12-25T20:51:54.111Z,4.90
2017-12-25T20:54:21.648Z,4.93
2017-12-25T20:56:49.170Z,4.80
2017-12-25T20:59:16.683Z,4.20
2017-12-25T21:01:44.916Z,4.80
2017-12-25T21:04:12.425Z,4.30
2017-12-25T21:06:40.376Z,4.63
2017-12-25T21:09:07.886Z,5.10
2017-12-25T21:11:35.445Z,4.90
2017-12-25T21:14:02.988Z,5.10
2017-12-25T21:16:31.450Z,4.37
2017-12-25T21:18:58.964Z,4.57
2017-12-25T21:21:26.491Z,4.10
2017-12-25T21:23:54.493Z,3.90
2017-12-25T21:26:21.998Z,3.73
2017-12-25T21:28:49.513Z,3.33
2017-12-25T21:31:17.142Z,3.60
2017-12-25T21:33:44.662Z,3.53
2017-12-25T21:36:12.161Z,3.67
2017-12-25T21:38:39.667Z,3.17
2017-12-25T21:41:07.201Z,3.70
2017-12-25T21:43:34.705Z,3.90
2017-12-25T21:46:02.284Z,3.83
2017-12-25T21:48:29.789Z,3.77
2017-12-25T21:50:57.291Z,3.80
2017-12-25T21:53:24.797Z,4.40
2017-12-25T21:55:52.302Z,4.00
2017-12-25T21:58:19.864Z,4.23
2017-12-25T22:00:47.516Z,3.90
2017-12-25T22:03:15.073Z,4.30
2017-12-25T22:05:42.576Z,4.23
2017-12-25T22:08:10.269Z,4.50
2017-12-25T22:10:37.777Z,4.43
2017-12-25T22:13:05.281Z,4.47
2017-12-25T22:15:32.793Z,4.77
2017-12-25T22:18:00.369Z,4.83
2017-12-25T22:20:28.032Z,5.13
2017-12-25T22:22:55.586Z,6.27
2017-12-25T22:25:23.092Z,5.50
2017-12-25T22:27:50.606Z,5.50
2017-12-25T22:30:18.178Z,6.03
2017-12-25T22:32:45.705Z,6.67
2017-12-25T22:35:13.357Z,6.40
2017-12-25T22:37:40.874Z,6.87
2017-12-25T22:40:08.521Z,6.00
2017-12-25T22:42:36.160Z,6.47
2017-12-25T22:45:03.656Z,6.70
2017-12-25T22:47:31.399Z,8.13
2017-12-25T22:49:58.932Z,7.75
2017-12-25T22:52:26.465Z,7.50
2017-12-25T22:54:54.006Z,7.47
2017-12-25T22:57:21.636Z,7.23
2017-12-25T22:59:49.612Z,7.03
2017-12-25T23:02:17.173Z,7.67
2017-12-25T23:04:44.697Z,8.30
2017-12-25T23:07:12.294Z,8.20
2017-12-25T23:09:39.917Z,8.03
2017-12-25T23:12:07.513Z,7.70
2017-12-25T23:14:35.037Z,8.03
2017-12-25T23:17:02.628Z,8.70
2017-12-25T23:19:30.297Z,8.60
2017-12-25T23:21:58.266Z,8.57
2017-12-25T23:24:25.773Z,8.70
2017-12-25T23:26:53.510Z,8.60
2017-12-25T23:29:21.016Z,8.83
2017-12-25T23:31:48.533Z,8.63
2017-12-25T23:34:16.154Z,8.70
2017-12-25T23:36:43.770Z,9.13
2017-12-25T23:39:11.469Z,8.70
2017-12-25T23:41:38.977Z,9.20
2017-12-25T23:44:06.498Z,9.50
2017-12-25T23:46:34.022Z,9.60
2017-12-25T23:49:01.583Z,9.30
2017-12-25T23:51:29.096Z,9.43
2017-12-25T23:53:56.643Z,9.97
2017-12-25T23:56:24.192Z,10.03
2017-12-25T23:58:51.695Z,9.70
